Time;durP1;ratioP1;P1;durP2;ratioP2;P2;SDS_P1;SDS_P2;PMS_P1;PMS_P2;Temp;Humidity;BMP_temperature;BMP_pressure;BME280_temperature;BME280_humidity;BME280_pressure;Samples;Min_cycle;Max_cycle;Signal;HPM_P1;HPM_P2
2023/08/14 00:00:31;;;;;;;7.33;2.53;;;;;;;18.80;100.00;101130.13;5073444;28;20532;-71
2023/08/14 00:02:58;;;;;;;11.40;2.97;;;;;;;18.77;100.00;101139.06;5073735;28;20445;-69
2023/08/14 00:05:25;;;;;;;7.00;2.77;;;;;;;18.72;100.00;101128.28;5074018;28;20487;-69
2023/08/14 00:07:52;;;;;;;11.20;2.93;;;;;;;18.65;100.00;101133.53;5073392;28;20441;-71
2023/08/14 00:10:20;;;;;;;7.90;3.17;;;;;;;18.61;98.53;101135.34;5073756;28;20520;-71
2023/08/14 00:12:47;;;;;;;6.70;2.33;;;;;;;18.55;98.87;101132.03;5073022;28;20481;-71
2023/08/14 00:15:14;;;;;;;7.30;2.60;;;;;;;18.53;99.27;101133.50;5073385;28;20526;-71
2023/08/14 00:17:40;;;;;;;7.87;2.63;;;;;;;18.51;100.00;101136.59;5073062;28;20445;-71
2023/08/14 00:20:08;;;;;;;7.70;2.63;;;;;;;18.53;100.00;101147.22;5073611;28;20465;-71
2023/08/14 00:22:35;;;;;;;6.97;2.97;;;;;;;18.56;100.00;101141.06;5073365;28;20480;-72
2023/08/14 00:25:02;;;;;;;6.87;2.83;;;;;;;18.55;100.00;101142.19;5073182;28;20992;-72
2023/08/14 00:27:30;;;;;;;6.60;2.77;;;;;;;18.52;100.00;101137.41;5073627;28;20445;-72
2023/08/14 00:29:57;;;;;;;6.57;2.27;;;;;;;18.49;100.00;101143.56;5072987;28;20494;-72
2023/08/14 00:32:23;;;;;;;6.53;2.13;;;;;;;18.49;100.00;101151.78;5072908;28;20960;-72
2023/08/14 00:34:50;;;;;;;10.17;3.53;;;;;;;18.48;100.00;101148.25;5073113;28;20829;-71
2023/08/14 00:37:17;;;;;;;7.73;2.90;;;;;;;18.45;100.00;101146.19;5073321;28;20472;-72
2023/08/14 00:39:43;;;;;;;11.03;3.13;;;;;;;18.48;100.00;101150.19;5073496;28;20449;-71
2023/08/14 00:42:10;;;;;;;6.00;2.03;;;;;;;18.47;100.00;101140.38;5073178;28;20802;-71
2023/08/14 00:44:38;;;;;;;7.70;2.53;;;;;;;18.48;100.00;101141.97;5074003;28;20480;-71
2023/08/14 00:47:05;;;;;;;7.70;2.97;;;;;;;18.46;100.00;101139.56;5077201;28;20524;-71
2023/08/14 00:49:32;;;;;;;8.67;2.73;;;;;;;18.46;100.00;101136.00;5077196;28;20476;-71
2023/08/14 00:52:00;;;;;;;9.50;2.33;;;;;;;18.45;100.00;101145.38;5077128;28;20437;-71
2023/08/14 00:54:27;;;;;;;6.80;2.07;;;;;;;18.45;100.00;101142.63;5076394;28;20878;-71
2023/08/14 00:56:53;;;;;;;6.40;2.40;;;;;;;18.46;100.00;101144.25;5076478;28;21028;-71
2023/08/14 00:59:20;;;;;;;7.67;3.13;;;;;;;18.44;100.00;101138.31;5076416;28;20990;-71
2023/08/14 01:01:48;;;;;;;7.50;2.90;;;;;;;18.43;100.00;101134.75;5076878;28;20523;-71
2023/08/14 01:04:14;;;;;;;7.37;3.20;;;;;;;18.43;100.00;101134.75;5076196;28;21083;-71
2023/08/14 01:06:41;;;;;;;8.30;2.97;;;;;;;18.41;100.00;101134.28;5076988;28;20536;-71
2023/08/14 01:09:09;;;;;;;8.40;3.00;;;;;;;18.37;100.00;101149.81;5076501;28;20445;-71
2023/08/14 01:11:44;;;;;;;7.97;2.60;;;;;;;18.33;100.00;101155.22;5076458;28;20539;-72
2023/08/14 01:14:19;;;;;;;7.50;2.73;;;;;;;18.33;100.00;101144.25;5076430;28;20444;-72
2023/08/14 01:16:52;;;;;;;7.90;3.00;;;;;;;18.32;100.00;101150.84;5076509;28;20456;-71
2023/08/14 01:19:22;;;;;;;6.60;2.40;;;;;;;18.34;100.00;101148.56;5076380;28;20425;-71
2023/08/14 01:22:00;;;;;;;8.53;3.93;;;;;;;18.30;100.00;101147.66;5076615;28;20468;-71
2023/08/14 01:24:40;;;;;;;8.97;3.00;;;;;;;18.29;100.00;101148.78;5076158;28;20512;-71
2023/08/14 01:27:09;;;;;;;7.70;2.47;;;;;;;18.29;100.00;101148.00;5076181;28;20474;-71
2023/08/14 01:29:35;;;;;;;6.80;2.90;;;;;;;18.29;100.00;101151.53;5075677;28;20441;-71
2023/08/14 01:32:02;;;;;;;6.93;2.57;;;;;;;18.25;100.00;101144.34;5076100;28;20437;-72
2023/08/14 01:34:28;;;;;;;6.93;2.53;;;;;;;18.25;100.00;101150.63;5075997;28;20442;-72
2023/08/14 01:37:00;;;;;;;8.63;3.03;;;;;;;18.26;100.00;101152.22;5075665;28;20533;-71
2023/08/14 01:39:32;;;;;;;7.17;3.07;;;;;;;18.27;100.00;101155.75;5076015;28;20866;-71
2023/08/14 01:42:10;;;;;;;7.10;2.63;;;;;;;18.23;100.00;101152.88;5075964;28;20742;-71
2023/08/14 01:44:40;;;;;;;7.60;2.97;;;;;;;18.17;100.00;101148.75;5075608;28;20564;-72
2023/08/14 01:47:10;;;;;;;8.13;2.80;;;;;;;18.22;100.00;101156.78;5075830;28;20425;-72
2023/08/14 01:49:38;;;;;;;8.97;3.00;;;;;;;18.23;100.00;101152.88;5076386;28;20421;-72
2023/08/14 01:52:06;;;;;;;8.73;3.23;;;;;;;18.19;100.00;101149.22;5075735;28;20444;-72
2023/08/14 01:54:32;;;;;;;16.10;3.43;;;;;;;18.21;100.00;101155.16;5075664;28;20528;-72
2023/08/14 01:56:59;;;;;;;8.60;3.97;;;;;;;18.17;100.00;101148.75;5075735;28;20858;-71
2023/08/14 01:59:35;;;;;;;8.93;3.50;;;;;;;18.15;100.00;101145.56;5075630;28;20958;-71
2023/08/14 02:02:03;;;;;;;7.80;3.13;;;;;;;18.11;100.00;101145.44;5075695;28;20425;-71
2023/08/14 02:04:30;;;;;;;8.30;3.33;;;;;;;18.09;100.00;101146.91;5075414;28;20491;-71
2023/08/14 02:06:56;;;;;;;7.10;2.50;;;;;;;18.06;100.00;101147.56;5075736;28;20457;-71
2023/08/14 02:09:23;;;;;;;9.80;3.30;;;;;;;18.02;100.00;101141.97;5075504;28;20442;-71
2023/08/14 02:11:49;;;;;;;9.93;2.83;;;;;;;18.00;100.00;101141.50;5075399;28;20528;-71
2023/08/14 02:14:16;;;;;;;7.17;3.07;;;;;;;17.95;100.00;101138.97;5076260;22;20623;-71
2023/08/14 02:16:43;;;;;;;6.70;2.37;;;;;;;17.88;100.00;101136.81;5057147;28;20458;-71
2023/08/14 02:19:11;;;;;;;9.30;3.63;;;;;;;17.84;100.00;101138.59;5056579;28;20533;-71
2023/08/14 02:21:37;;;;;;;6.83;2.53;;;;;;;17.79;100.00;101135.25;5056487;28;20926;-71
2023/08/14 02:24:04;;;;;;;7.37;3.10;;;;;;;17.79;100.00;101133.31;5056000;28;20521;-71
2023/08/14 02:26:31;;;;;;;7.97;2.80;;;;;;;17.70;100.00;101129.81;5056011;28;20977;-71
2023/08/14 02:28:58;;;;;;;7.63;2.60;;;;;;;17.69;100.00;101139.19;5055408;28;20449;-71
2023/08/14 02:31:24;;;;;;;7.87;2.80;;;;;;;17.68;100.00;101137.59;5055410;28;20536;-71
2023/08/14 02:33:51;;;;;;;7.70;2.50;;;;;;;17.65;100.00;101135.50;5055008;28;20473;-71
2023/08/14 02:36:19;;;;;;;7.23;2.57;;;;;;;17.64;100.00;101140.19;5055213;28;20545;-71
2023/08/14 02:38:46;;;;;;;7.50;2.40;;;;;;;17.62;100.00;101134.25;5055026;28;20446;-71
2023/08/14 02:41:12;;;;;;;11.10;3.00;;;;;;;17.60;100.00;101141.19;5055103;28;20434;-71
2023/08/14 02:43:39;;;;;;;8.70;3.30;;;;;;;17.55;100.00;101138.66;5055153;28;20521;-72
2023/08/14 02:46:05;;;;;;;7.70;3.23;;;;;;;17.53;100.00;101135.44;5054845;28;20485;-71
2023/08/14 02:48:32;;;;;;;6.97;3.10;;;;;;;17.51;100.00;101132.25;5055179;28;20469;-70
2023/08/14 02:50:59;;;;;;;6.87;2.67;;;;;;;17.46;100.00;101138.72;5054800;28;20490;-70
2023/08/14 02:53:27;;;;;;;8.53;3.00;;;;;;;17.46;100.00;101146.94;5055155;28;20529;-70
2023/08/14 02:55:54;;;;;;;9.93;3.40;;;;;;;17.43;100.00;101142.13;5054573;28;20461;-70
2023/08/14 02:58:20;;;;;;;8.33;2.90;;;;;;;17.38;100.00;101134.91;5054685;28;20529;-70
2023/08/14 03:00:47;;;;;;;7.57;2.73;;;;;;;17.39;100.00;101138.44;5054427;28;20521;-70
2023/08/14 03:03:14;;;;;;;6.93;2.57;;;;;;;17.33;100.00;101140.59;5054542;28;20442;-70
2023/08/14 03:05:41;;;;;;;8.40;2.90;;;;;;;17.30;100.00;101140.44;5054024;28;20521;-70
2023/08/14 03:08:08;;;;;;;9.23;2.80;;;;;;;17.27;100.00;101144.66;5053958;28;20488;-70
2023/08/14 03:10:36;;;;;;;8.00;2.83;;;;;;;17.24;100.00;101145.31;5054510;28;20445;-70
2023/08/14 03:13:03;;;;;;;8.17;3.27;;;;;;;17.23;100.00;101146.47;5053937;28;20540;-70
2023/08/14 03:15:29;;;;;;;8.10;3.30;;;;;;;17.18;100.00;101148.56;5054200;28;20541;-70
2023/08/14 03:17:56;;;;;;;8.60;3.13;;;;;;;17.18;100.00;101154.03;5054051;28;20434;-69
2023/08/14 03:20:23;;;;;;;7.10;2.80;;;;;;;17.15;100.00;101158.25;5054086;28;20822;-69
2023/08/14 03:22:49;;;;;;;7.23;2.83;;;;;;;17.14;100.00;101156.66;5054108;28;21044;-70
2023/08/14 03:25:16;;;;;;;7.23;2.60;;;;;;;17.08;100.00;101157.97;5054016;28;20490;-71
2023/08/14 03:27:44;;;;;;;7.00;2.57;;;;;;;17.04;100.00;101157.03;5054111;28;20533;-70
2023/08/14 03:30:12;;;;;;;6.73;2.83;;;;;;;17.02;100.00;101148.34;5054008;28;20451;-70
2023/08/14 03:32:39;;;;;;;7.77;2.83;;;;;;;16.98;100.00;101150.94;5053907;28;20438;-70
2023/08/14 03:35:06;;;;;;;7.73;2.87;;;;;;;16.93;100.00;101144.88;5053872;28;20496;-71
2023/08/14 03:37:32;;;;;;;7.00;2.47;;;;;;;16.88;100.00;101152.13;5053933;28;20452;-71
2023/08/14 03:39:59;;;;;;;6.97;3.03;;;;;;;16.86;100.00;101150.84;5053528;28;20442;-71
2023/08/14 03:42:26;;;;;;;7.73;3.20;;;;;;;16.81;100.00;101151.03;5053793;28;20456;-70
2023/08/14 03:44:54;;;;;;;7.97;2.60;;;;;;;16.80;100.00;101152.97;5053316;28;20577;-71
2023/08/14 03:47:20;;;;;;;8.43;2.80;;;;;;;16.75;100.00;101147.69;5053735;28;20466;-71
2023/08/14 03:49:47;;;;;;;9.37;2.90;;;;;;;16.72;100.00;101144.75;5053640;28;20462;-71
2023/08/14 03:52:14;;;;;;;8.30;3.10;;;;;;;16.69;100.00;101146.25;5053688;28;20522;-71
2023/08/14 03:54:40;;;;;;;9.67;3.00;;;;;;;16.72;100.00;101145.59;5053511;28;20944;-71
2023/08/14 03:57:07;;;;;;;11.87;3.37;;;;;;;16.71;100.00;101148.63;5053688;28;20524;-71
2023/08/14 03:59:33;;;;;;;7.43;2.50;;;;;;;16.72;100.00;101150.25;5053430;28;20448;-71
2023/08/14 04:02:01;;;;;;;8.50;2.87;;;;;;;16.71;100.00;101154.91;5053267;28;21020;-70
2023/08/14 04:04:28;;;;;;;7.73;2.50;;;;;;;16.72;100.00;101155.72;5053682;28;20814;-70
2023/08/14 04:06:55;;;;;;;6.80;3.03;;;;;;;16.69;100.00;101151.72;5053343;28;20535;-70
2023/08/14 04:09:21;;;;;;;9.80;3.00;;;;;;;16.66;100.00;101146.88;5053535;28;20439;-70
2023/08/14 04:11:48;;;;;;;8.63;2.77;;;;;;;16.66;100.00;101141.41;5053746;28;20525;-70
2023/08/14 04:14:14;;;;;;;7.07;2.73;;;;;;;16.65;100.00;101148.03;5053037;28;20462;-70
2023/08/14 04:16:45;;;;;;;7.73;2.63;;;;;;;16.66;100.00;101141.41;5052938;28;20887;-70
2023/08/14 04:19:14;;;;;;;7.33;2.63;;;;;;;16.70;100.00;101147.84;5053656;28;20450;-70
2023/08/14 04:21:41;;;;;;;7.03;2.43;;;;;;;16.73;100.00;101143.66;5057512;28;20442;-70
2023/08/14 04:24:09;;;;;;;7.20;3.00;;;;;;;16.70;100.00;101147.84;5057474;28;20513;-71
2023/08/14 04:26:37;;;;;;;9.80;3.13;;;;;;;16.71;100.00;101151.38;5057559;28;20566;-71
2023/08/14 04:29:04;;;;;;;8.33;2.80;;;;;;;16.72;100.00;101152.97;5056930;28;20441;-70
2023/08/14 04:31:31;;;;;;;9.53;2.67;;;;;;;16.75;100.00;101153.16;5057142;28;20449;-70
2023/08/14 04:33:57;;;;;;;7.10;2.60;;;;;;;16.77;100.00;101152.81;5057080;28;20468;-71
2023/08/14 04:36:25;;;;;;;8.03;3.00;;;;;;;16.80;100.00;101152.16;5056986;28;20977;-71
2023/08/14 04:38:52;;;;;;;7.50;3.10;;;;;;;16.78;100.00;101143.50;5057049;28;20434;-71
2023/08/14 04:41:19;;;;;;;9.20;3.13;;;;;;;16.83;100.00;101149.59;5056625;28;20472;-71
2023/08/14 04:43:45;;;;;;;7.53;2.63;;;;;;;16.86;100.00;101151.63;5056680;28;20517;-71
2023/08/14 04:46:12;;;;;;;7.27;2.90;;;;;;;16.89;100.00;101152.94;5056534;28;21080;-71
2023/08/14 04:48:39;;;;;;;8.33;3.00;;;;;;;16.93;100.00;101150.34;5056597;28;20870;-71
2023/08/14 04:51:06;;;;;;;7.17;2.63;;;;;;;16.98;100.00;101156.41;5056820;28;20466;-71
2023/08/14 04:53:34;;;;;;;9.50;3.30;;;;;;;17.04;100.00;101157.03;5056812;28;20524;-71
2023/08/14 04:56:01;;;;;;;9.07;3.30;;;;;;;17.10;100.00;101155.72;5056274;28;20879;-71
2023/08/14 04:58:27;;;;;;;9.60;3.03;;;;;;;17.11;100.00;101155.38;5056725;28;20456;-71
2023/08/14 05:00:54;;;;;;;6.53;2.50;;;;;;;17.14;100.00;101153.94;5056600;28;20446;-70
2023/08/14 05:03:20;;;;;;;6.50;2.20;;;;;;;17.14;100.00;101159.41;5056543;28;20538;-70
2023/08/14 05:05:51;;;;;;;7.83;2.30;;;;;;;17.15;100.00;101155.53;5056260;28;20890;-71
2023/08/14 05:08:18;;;;;;;9.10;3.07;;;;;;;17.22;100.00;101161.28;5056770;28;20423;-71
2023/08/14 05:10:50;;;;;;;9.80;2.70;;;;;;;17.28;100.00;101162.69;5056464;28;20465;-71
2023/08/14 05:13:16;;;;;;;7.53;2.97;;;;;;;17.34;100.00;101166.81;5056216;28;20458;-71
2023/08/14 05:15:43;;;;;;;8.47;3.10;;;;;;;17.45;100.00;101175.47;5056584;28;20454;-71
2023/08/14 05:18:10;;;;;;;7.90;2.70;;;;;;;17.53;100.00;101163.66;5055938;28;21000;-71
2023/08/14 05:20:37;;;;;;;8.60;3.13;;;;;;;17.63;100.00;101163.25;5056294;28;20446;-70
2023/08/14 05:23:04;;;;;;;7.20;2.30;;;;;;;17.71;100.00;101171.72;5055838;28;20444;-70
2023/08/14 05:25:30;;;;;;;13.90;3.40;;;;;;;17.86;100.00;101165.66;5055964;28;20496;-71
2023/08/14 05:27:58;;;;;;;8.60;2.87;;;;;;;17.99;100.00;101167.31;5056109;28;20521;-70
2023/08/14 05:30:25;;;;;;;8.30;3.30;;;;;;;18.10;100.00;101162.22;5055598;28;20468;-70
2023/08/14 05:32:51;;;;;;;8.80;3.30;;;;;;;18.19;100.00;101171.16;5056506;28;20529;-72
2023/08/14 05:35:23;;;;;;;7.37;3.30;;;;;;;18.31;100.00;101160.22;5055924;28;20468;-70
2023/08/14 05:37:52;;;;;;;9.43;3.30;;;;;;;18.51;100.00;101166.00;5055948;28;20427;-70
2023/08/14 05:40:19;;;;;;;10.30;3.90;;;;;;;18.63;100.00;101166.00;5055911;28;20759;-70
2023/08/14 05:42:46;;;;;;;11.80;3.83;;;;;;;18.76;100.00;101175.06;5055575;28;20784;-70
2023/08/14 05:45:14;;;;;;;12.10;4.70;;;;;;;18.86;100.00;101174.63;5055359;28;20490;-70
2023/08/14 05:47:41;;;;;;;11.37;3.67;;;;;;;18.96;100.00;101170.63;5055692;28;20514;-70
2023/08/14 05:50:08;;;;;;;7.20;3.10;;;;;;;19.07;100.00;101169.00;5055421;28;21001;-70
2023/08/14 05:52:34;;;;;;;10.33;3.70;;;;;;;19.18;100.00;101170.16;5055670;28;20571;-71
2023/08/14 05:55:01;;;;;;;11.07;3.30;;;;;;;19.25;100.00;101170.38;5055579;28;20454;-70
2023/08/14 05:57:28;;;;;;;8.13;2.80;;;;;;;19.31;100.00;101169.00;5055788;28;20446;-71
2023/08/14 05:59:54;;;;;;;7.67;3.50;;;;;;;19.45;100.00;101185.13;5055755;28;20509;-71
2023/08/14 06:02:22;;;;;;;7.97;3.80;;;;;;;19.59;100.00;101184.72;5055459;28;20481;-71
2023/08/14 06:04:49;;;;;;;7.47;3.10;;;;;;;19.74;100.00;101184.03;5055360;28;20478;-71
2023/08/14 06:07:16;;;;;;;6.30;2.40;;;;;;;19.85;100.00;101185.16;5055296;28;20490;-71
2023/08/14 06:09:43;;;;;;;6.97;2.63;;;;;;;19.96;99.20;101187.38;5055317;28;20976;-71
2023/08/14 06:12:09;;;;;;;7.63;2.73;;;;;;;20.01;99.38;101187.13;5055436;28;20521;-71
2023/08/14 06:14:36;;;;;;;7.00;2.60;;;;;;;20.06;100.00;101189.66;5054871;28;20458;-71
2023/08/14 06:17:03;;;;;;;7.63;2.43;;;;;;;20.14;99.86;101192.25;5055332;28;20466;-71
2023/08/14 06:19:31;;;;;;;6.23;2.57;;;;;;;20.18;100.00;101197.84;5054819;28;20973;-71
2023/08/14 06:21:58;;;;;;;7.00;2.93;;;;;;;20.36;97.96;101195.56;5055459;28;20446;-71
2023/08/14 06:24:28;;;;;;;9.90;2.30;;;;;;;20.54;96.56;101193.31;5055087;28;20536;-71
2023/08/14 06:26:55;;;;;;;9.33;3.80;;;;;;;20.68;96.05;101195.66;5054871;28;20486;-71
2023/08/14 06:29:22;;;;;;;12.30;3.60;;;;;;;20.79;95.96;101199.47;5054961;28;20433;-71
2023/08/14 06:31:49;;;;;;;7.30;2.63;;;;;;;20.98;95.19;101198.72;5054928;28;20434;-71
2023/08/14 06:34:15;;;;;;;7.00;2.73;;;;;;;21.16;94.44;101202.72;5054552;28;20951;-71
2023/08/14 06:36:44;;;;;;;6.77;2.30;;;;;;;21.26;94.44;101198.63;5054698;28;20489;-71
2023/08/14 06:39:10;;;;;;;7.00;2.57;;;;;;;21.38;93.77;101204.84;5054324;28;20989;-71
2023/08/14 06:41:37;;;;;;;6.77;2.63;;;;;;;21.47;91.59;101204.66;5054474;28;20533;-71
2023/08/14 06:44:04;;;;;;;6.20;2.03;;;;;;;21.58;90.50;101200.16;5053876;28;21009;-71
2023/08/14 06:46:31;;;;;;;6.40;2.20;;;;;;;21.66;89.27;101207.44;5054458;28;20532;-72
2023/08/14 06:48:58;;;;;;;7.10;2.37;;;;;;;21.69;88.59;101199.59;5054510;28;20812;-71
2023/08/14 06:51:24;;;;;;;6.50;2.10;;;;;;;21.76;89.70;101200.53;5054550;28;20534;-71
2023/08/14 06:53:52;;;;;;;12.30;2.77;;;;;;;21.78;89.85;101209.28;5054138;28;20438;-71
2023/08/14 06:56:19;;;;;;;5.90;1.93;;;;;;;21.82;88.84;101203.81;5054233;28;20533;-71
2023/08/14 06:58:45;;;;;;;8.60;2.60;;;;;;;21.82;90.95;101195.53;5054455;28;20492;-71
2023/08/14 07:01:12;;;;;;;6.50;2.20;;;;;;;21.88;90.05;101194.09;5054272;28;21006;-70
2023/08/14 07:03:39;;;;;;;8.60;2.50;;;;;;;21.96;90.40;101200.53;5054343;28;20505;-70
2023/08/14 07:06:05;;;;;;;6.40;2.20;;;;;;;22.04;89.28;101199.53;5054058;28;21072;-73
2023/08/14 07:08:32;;;;;;;6.23;2.10;;;;;;;22.15;87.19;101203.34;5054241;28;20440;-70
2023/08/14 07:11:00;;;;;;;7.20;2.60;;;;;;;22.20;85.59;101200.28;5054073;28;20525;-70
2023/08/14 07:13:27;;;;;;;6.33;1.83;;;;;;;22.33;85.66;101198.94;5053997;28;20464;-70
2023/08/14 07:15:54;;;;;;;7.10;2.00;;;;;;;22.41;87.06;101200.69;5053657;28;20544;-70
2023/08/14 07:18:20;;;;;;;5.97;1.70;;;;;;;22.47;87.79;101201.16;5054106;28;20517;-70
2023/08/14 07:20:47;;;;;;;7.00;2.40;;;;;;;22.48;83.98;101201.97;5053625;28;20442;-70
2023/08/14 07:23:14;;;;;;;6.33;1.97;;;;;;;22.55;84.44;101204.84;5053563;28;20525;-70
2023/08/14 07:25:40;;;;;;;6.23;1.97;;;;;;;22.70;84.13;101194.84;5053978;28;20466;-71
2023/08/14 07:28:08;;;;;;;6.50;1.73;;;;;;;22.83;84.17;101196.25;5053509;28;20449;-70
2023/08/14 07:30:35;;;;;;;7.87;2.07;;;;;;;22.90;85.32;101188.91;5053780;28;20470;-71
2023/08/14 07:33:02;;;;;;;7.40;2.03;;;;;;;23.01;85.12;101191.84;5053862;28;20817;-71
2023/08/14 07:35:28;;;;;;;6.10;1.90;;;;;;;23.05;85.02;101197.44;5053740;28;20460;-70
2023/08/14 07:37:55;;;;;;;9.00;2.87;;;;;;;23.13;82.38;101188.88;5053711;28;20462;-70
2023/08/14 07:40:22;;;;;;;6.13;1.47;;;;;;;23.22;81.58;101194.13;5053721;28;20449;-70
2023/08/14 07:42:48;;;;;;;6.73;2.30;;;;;;;23.33;80.15;101202.56;5053587;28;20445;-70
2023/08/14 07:45:17;;;;;;;7.37;2.07;;;;;;;23.41;79.13;101195.97;5053519;28;20545;-70
2023/08/14 07:47:43;;;;;;;7.23;1.80;;;;;;;23.50;79.43;101198.47;5053564;28;20482;-70
2023/08/14 07:50:11;;;;;;;5.00;1.60;;;;;;;23.52;80.00;101199.72;5053532;28;20439;-70
2023/08/14 07:52:39;;;;;;;5.33;1.70;;;;;;;23.52;80.98;101205.25;5053610;28;20524;-70
2023/08/14 07:55:06;;;;;;;6.00;1.90;;;;;;;23.51;79.50;101211.16;5053380;28;20454;-70
2023/08/14 07:57:33;;;;;;;6.87;2.00;;;;;;;23.52;77.88;101213.53;5053178;28;20477;-70
2023/08/14 08:00:00;;;;;;;7.73;2.30;;;;;;;23.59;77.32;101219.16;5053504;28;20525;-70
2023/08/14 08:02:28;;;;;;;6.27;2.03;;;;;;;23.70;76.37;101224.06;5053473;28;20446;-70
2023/08/14 08:04:55;;;;;;;6.17;1.90;;;;;;;23.74;76.77;101228.47;5053288;28;20458;-70
2023/08/14 08:07:22;;;;;;;6.10;2.03;;;;;;;23.76;76.53;101226.13;5053176;28;21009;-70
2023/08/14 08:09:48;;;;;;;6.80;1.63;;;;;;;23.82;74.58;101227.41;5053272;28;20442;-71
2023/08/14 08:14:44;;;;;;;6.13;2.10;;;;;;;24.02;74.24;101227.25;5028818;28;20471;-71
2023/08/14 08:17:11;;;;;;;7.37;2.00;;;;;;;24.11;73.63;101222.22;4998758;28;20517;-70
2023/08/14 08:19:39;;;;;;;5.30;1.57;;;;;;;24.16;73.59;101217.13;4995514;28;21040;-73
2023/08/14 08:22:05;;;;;;;5.20;1.33;;;;;;;24.24;73.92;101228.28;4994951;28;20532;-70
2023/08/14 08:24:32;;;;;;;5.70;1.70;;;;;;;24.23;75.62;101221.16;4994216;28;20445;-69
2023/08/14 08:26:59;;;;;;;7.23;2.07;;;;;;;24.35;71.63;101232.78;4994095;28;20491;-69
2023/08/14 08:29:25;;;;;;;6.33;1.63;;;;;;;24.44;69.49;101237.22;4993953;28;20441;-69
2023/08/14 08:31:52;;;;;;;5.63;1.63;;;;;;;24.49;72.26;101223.06;4994369;28;20549;-69
2023/08/14 08:34:18;;;;;;;6.30;1.80;;;;;;;24.47;72.04;101222.63;4993888;28;20524;-70
2023/08/14 08:36:46;;;;;;;5.13;1.13;;;;;;;24.48;72.48;101222.25;4993970;28;20540;-70
2023/08/14 08:39:13;;;;;;;5.73;1.57;;;;;;;24.52;73.01;101208.41;4994151;28;20528;-69
2023/08/14 08:41:47;;;;;;;7.90;1.60;;;;;;;24.69;64.56;101216.09;4994182;28;20480;-69
2023/08/14 08:44:22;;;;;;;6.20;2.00;;;;;;;24.83;66.37;101215.44;4994006;28;20448;-69
2023/08/14 08:46:52;;;;;;;4.93;1.23;;;;;;;24.85;70.88;101213.88;4993700;28;20902;-69
2023/08/14 08:49:19;;;;;;;5.80;1.73;;;;;;;24.92;71.83;101211.19;4994128;28;20524;-69
2023/08/14 08:51:48;;;;;;;5.57;1.80;;;;;;;24.91;72.28;101211.53;4993618;28;20821;-69
2023/08/14 08:54:16;;;;;;;6.70;2.07;;;;;;;25.08;68.20;101210.91;4993710;28;20499;-69
2023/08/14 08:56:43;;;;;;;6.57;1.60;;;;;;;25.20;69.15;101204.28;4995122;28;20468;-73
2023/08/14 08:59:11;;;;;;;6.60;1.90;;;;;;;25.22;70.50;101204.66;5005954;28;20453;-71
2023/08/14 09:01:38;;;;;;;6.33;1.60;;;;;;;25.31;69.46;101212.66;4994375;28;20480;-69
2023/08/14 09:04:05;;;;;;;5.97;1.50;;;;;;;25.38;59.09;101207.94;4994417;28;20721;-70
2023/08/14 09:06:32;;;;;;;6.73;1.80;;;;;;;25.53;58.26;101208.81;4995952;28;20503;-70
2023/08/14 09:09:00;;;;;;;8.50;2.03;;;;;;;25.59;60.72;101206.50;4997328;28;20467;-70
2023/08/14 09:11:27;;;;;;;5.40;1.20;;;;;;;25.54;53.94;101213.19;4997453;28;20483;-70
2023/08/14 09:13:53;;;;;;;5.53;1.33;;;;;;;25.59;54.24;101209.25;5022760;28;20451;-70
2023/08/14 09:16:20;;;;;;;4.90;1.20;;;;;;;25.53;52.71;101205.25;5037264;28;20545;-70
2023/08/14 09:18:47;;;;;;;5.50;1.60;;;;;;;25.65;52.92;101199.38;5037158;28;20526;-70
2023/08/14 09:21:15;;;;;;;5.00;1.20;;;;;;;25.78;53.60;101197.09;5036761;28;20526;-70
2023/08/14 09:23:42;;;;;;;6.13;1.43;;;;;;;25.85;55.90;101203.47;5037156;28;20443;-71
2023/08/14 09:26:11;;;;;;;4.77;1.07;;;;;;;25.90;57.95;101205.88;5036540;28;20485;-71
2023/08/14 09:28:39;;;;;;;5.53;1.60;;;;;;;26.00;55.44;101203.50;5036554;28;20483;-72
2023/08/14 09:31:07;;;;;;;4.60;1.10;;;;;;;26.05;56.04;101194.81;5036369;28;20561;-70
2023/08/14 09:33:34;;;;;;;5.67;1.10;;;;;;;26.03;53.93;101194.38;5036966;28;20427;-71
2023/08/14 09:36:00;;;;;;;5.27;1.53;;;;;;;26.06;56.08;101186.06;5036789;28;20555;-70
2023/08/14 09:38:28;;;;;;;5.60;1.60;;;;;;;26.06;54.48;101188.84;5036672;28;20521;-70
2023/08/14 09:40:57;;;;;;;4.90;1.20;;;;;;;26.17;55.77;101186.13;5035897;28;20931;-70
2023/08/14 09:43:26;;;;;;;5.10;1.33;;;;;;;26.16;52.72;101188.09;5037807;28;20763;-70
2023/08/14 09:45:53;;;;;;;4.80;1.03;;;;;;;26.18;53.86;101187.69;5038088;28;20494;-70
2023/08/14 09:48:20;;;;;;;5.97;1.50;;;;;;;26.26;56.55;101189.31;5036510;28;20519;-70
2023/08/14 09:50:49;;;;;;;4.93;1.40;;;;;;;26.40;55.57;101183.75;5036333;28;20475;-70
2023/08/14 09:53:16;;;;;;;5.97;1.20;;;;;;;26.46;58.11;101175.84;5036019;28;20442;-70
2023/08/14 09:55:43;;;;;;;6.83;1.80;;;;;;;26.47;57.90;101171.09;5036135;28;20481;-70
2023/08/14 09:58:10;;;;;;;5.60;1.43;;;;;;;26.51;56.57;101167.13;5035852;28;20923;-70
2023/08/14 10:00:39;;;;;;;6.33;1.70;;;;;;;26.68;55.88;101176.66;5035809;28;20444;-70
2023/08/14 10:03:09;;;;;;;5.63;1.40;;;;;;;26.77;55.18;101179.84;5036096;28;20493;-70
2023/08/14 10:05:38;;;;;;;5.10;1.27;;;;;;;26.83;57.64;101188.59;5035999;28;20506;-70
2023/08/14 10:08:08;;;;;;;5.33;1.30;;;;;;;26.93;53.62;101210.03;5035902;28;20483;-70
2023/08/14 10:10:37;;;;;;;5.60;1.57;;;;;;;27.00;55.45;101212.78;5035994;28;20919;-70
2023/08/14 10:13:09;;;;;;;6.50;1.43;;;;;;;27.00;50.98;101215.56;5036492;28;20483;-70
2023/08/14 10:15:43;;;;;;;5.30;1.40;;;;;;;27.05;53.56;101204.06;5036445;28;20487;-70
2023/08/14 10:18:14;;;;;;;5.27;1.40;;;;;;;27.17;52.97;101203.66;5037617;28;20502;-70
2023/08/14 10:20:42;;;;;;;4.70;0.90;;;;;;;27.20;52.89;101204.88;5035709;28;20455;-70
2023/08/14 10:23:09;;;;;;;5.23;1.27;;;;;;;27.28;50.42;101198.09;5035403;28;20443;-71
2023/08/14 10:25:39;;;;;;;5.47;1.17;;;;;;;27.35;51.40;101189.72;5035826;28;20487;-70
2023/08/14 10:28:08;;;;;;;5.27;1.30;;;;;;;27.37;51.71;101187.34;5035332;28;20479;-70
2023/08/14 10:30:35;;;;;;;4.63;0.87;;;;;;;27.53;53.59;101194.44;5035681;28;20446;-70
2023/08/14 10:33:05;;;;;;;4.90;1.30;;;;;;;27.67;51.23;101202.75;5034912;28;20939;-70
2023/08/14 10:35:44;;;;;;;5.00;1.47;;;;;;;27.83;50.21;101189.19;5035593;28;20471;-70
2023/08/14 10:38:11;;;;;;;4.90;1.23;;;;;;;27.82;50.28;101193.16;5044867;28;20459;-74
2023/08/14 10:40:51;;;;;;;7.67;1.07;;;;;;;27.95;49.33;101178.78;5044154;28;20867;-71
2023/08/14 10:43:18;;;;;;;4.67;1.00;;;;;;;28.00;48.74;101181.94;5034876;28;20422;-70
2023/08/14 10:45:45;;;;;;;5.17;1.30;;;;;;;28.19;48.54;101182.63;5035645;28;20518;-70
2023/08/14 10:48:13;;;;;;;6.30;1.03;;;;;;;28.33;49.92;101174.97;5034912;28;20541;-70
2023/08/14 10:50:39;;;;;;;6.70;1.10;;;;;;;28.41;48.56;101168.16;5037563;28;20469;-72
2023/08/14 10:53:06;;;;;;;8.23;1.30;;;;;;;28.48;47.65;101166.53;5048473;28;20447;-74
2023/08/14 10:55:37;;;;;;;5.80;1.30;;;;;;;28.49;51.82;101166.13;5035061;28;20482;-71
2023/08/14 10:58:38;;;;;;;5.50;1.47;;;;;;;28.56;51.39;101166.09;5034764;28;20510;-70
2023/08/14 11:01:06;;;;;;;7.20;1.43;;;;;;;28.70;48.68;101169.94;5034524;28;20456;-70
2023/08/14 11:03:35;;;;;;;5.60;1.13;;;;;;;28.87;48.36;101172.59;5034688;28;20482;-70
2023/08/14 11:06:01;;;;;;;6.80;1.43;;;;;;;28.97;48.16;101172.91;5034913;28;20544;-72
2023/08/14 11:08:30;;;;;;;5.67;1.33;;;;;;;29.08;49.35;101166.00;5034528;28;20577;-71
2023/08/14 11:10:58;;;;;;;5.00;1.30;;;;;;;29.26;46.97;101171.41;5034574;28;20445;-71
2023/08/14 11:13:29;;;;;;;5.07;1.33;;;;;;;29.37;46.09;101165.72;5034710;28;20865;-71
2023/08/14 11:15:56;;;;;;;6.67;1.40;;;;;;;29.56;46.24;101164.31;5034390;28;20459;-71
2023/08/14 11:18:22;;;;;;;4.70;1.00;;;;;;;29.74;46.64;101158.50;5034273;28;20861;-71
2023/08/14 11:20:50;;;;;;;5.07;1.13;;;;;;;30.06;45.45;101155.25;5034310;28;20524;-71
2023/08/14 11:23:17;;;;;;;7.17;1.40;;;;;;;30.47;42.74;101162.69;5034055;28;20522;-71